createdAt,value
2022-09-25T00:01:11.683Z,100496.00
2022-09-25T00:03:40.319Z,100498.00
2022-09-25T00:06:13.013Z,100495.00
2022-09-25T00:08:41.078Z,100495.00
2022-09-25T00:11:10.747Z,100489.00
2022-09-25T00:13:38.611Z,100495.00
2022-09-25T00:16:06.982Z,100488.00
2022-09-25T00:18:52.385Z,100484.00
2022-09-25T00:21:21.732Z,100483.00
2022-09-25T00:23:49.761Z,100483.00
2022-09-25T00:26:18.375Z,100484.00
2022-09-25T00:28:46.235Z,100483.00
2022-09-25T00:31:20.407Z,100483.00
2022-09-25T00:33:48.155Z,100489.00
2022-09-25T00:36:15.861Z,100489.00
2022-09-25T00:38:48.413Z,100483.00
2022-09-25T00:41:18.044Z,100482.00
2022-09-25T00:43:48.779Z,100484.00
2022-09-25T00:46:22.104Z,100480.00
2022-09-25T00:48:52.623Z,100476.00
2022-09-25T00:51:29.653Z,100476.00
2022-09-25T00:54:03.161Z,100482.00
2022-09-25T00:56:36.779Z,100488.00
2022-09-25T00:59:04.991Z,100487.00
2022-09-25T01:01:32.913Z,100494.00
2022-09-25T01:04:01.106Z,100496.00
2022-09-25T01:06:29.124Z,100481.00
2022-09-25T01:08:58.037Z,100487.00
2022-09-25T01:11:27.211Z,100483.00
2022-09-25T01:13:58.029Z,100490.00
2022-09-25T01:16:32.078Z,100490.00
2022-09-25T01:19:11.923Z,100491.00
2022-09-25T01:21:45.578Z,100486.00
2022-09-25T01:24:36.622Z,100491.00
2022-09-25T01:27:31.440Z,100485.00
2022-09-25T01:30:08.392Z,100480.00
2022-09-25T01:32:43.219Z,100485.00
2022-09-25T01:35:17.830Z,100477.00
2022-09-25T01:37:49.453Z,100484.00
2022-09-25T01:40:26.131Z,100485.00
2022-09-25T01:43:00.777Z,100489.00
2022-09-25T01:45:35.580Z,100492.00
2022-09-25T01:48:06.428Z,100487.00
2022-09-25T01:50:39.809Z,100488.00
2022-09-25T01:53:13.204Z,100483.00
2022-09-25T01:55:45.931Z,100486.00
2022-09-25T01:58:17.396Z,100489.00
2022-09-25T02:00:51.645Z,100490.00
2022-09-25T02:03:25.644Z,100485.00
2022-09-25T02:05:56.282Z,100486.00
2022-09-25T02:08:29.552Z,100482.00
2022-09-25T02:11:00.615Z,100477.00
2022-09-25T02:13:34.948Z,100475.00
2022-09-25T02:16:10.171Z,100479.00
2022-09-25T02:18:55.919Z,100484.00
2022-09-25T02:21:31.257Z,100471.00
2022-09-25T02:24:10.002Z,100476.00
2022-09-25T02:26:38.382Z,100473.00
2022-09-25T02:29:06.792Z,100479.00
2022-09-25T02:31:38.987Z,100485.00
2022-09-25T02:34:12.080Z,100473.00
2022-09-25T02:36:43.146Z,100490.00
2022-09-25T02:39:14.415Z,100485.00
2022-09-25T02:41:58.885Z,100483.00
2022-09-25T02:44:36.180Z,100484.00
2022-09-25T02:47:20.488Z,100483.00
2022-09-25T02:49:55.442Z,100473.00
2022-09-25T02:52:29.135Z,100477.00
2022-09-25T02:55:03.907Z,100476.00
2022-09-25T02:57:39.336Z,100483.00
2022-09-25T03:00:09.188Z,100478.00
2022-09-25T03:02:40.079Z,100465.00
2022-09-25T03:05:11.627Z,100473.00
2022-09-25T03:07:53.683Z,100480.00
2022-09-25T03:10:22.494Z,100465.00
2022-09-25T03:12:50.391Z,100467.00
2022-09-25T03:15:18.679Z,100463.00
2022-09-25T03:17:51.070Z,100474.00
2022-09-25T03:20:18.974Z,100464.00
2022-09-25T03:22:47.087Z,100467.00
2022-09-25T03:25:16.145Z,100470.00
2022-09-25T03:27:43.835Z,100468.00
2022-09-25T03:30:12.241Z,100475.00
2022-09-25T03:32:42.126Z,100468.00
2022-09-25T03:35:11.415Z,100475.00
2022-09-25T03:37:39.267Z,100483.00
2022-09-25T03:40:08.445Z,100472.00
2022-09-25T03:42:36.357Z,100477.00
2022-09-25T03:45:04.129Z,100468.00
2022-09-25T03:47:31.919Z,100471.00
2022-09-25T03:49:59.601Z,100469.00
2022-09-25T03:52:28.649Z,100472.00
2022-09-25T03:54:56.373Z,100467.00
2022-09-25T03:57:25.695Z,100472.00
2022-09-25T03:59:53.441Z,100468.00
2022-09-25T04:02:21.180Z,100464.00
2022-09-25T04:04:48.944Z,100462.00
2022-09-25T04:07:16.796Z,100476.00
2022-09-25T04:09:45.851Z,100473.00
2022-09-25T04:12:13.727Z,100469.00
2022-09-25T04:14:42.648Z,100461.00
2022-09-25T04:17:10.340Z,100463.00
2022-09-25T04:19:38.095Z,100446.00
2022-09-25T04:22:05.759Z,100462.00
2022-09-25T04:24:51.506Z,100463.00
2022-09-25T04:27:22.351Z,100463.00
2022-09-25T04:29:50.900Z,100457.00
2022-09-25T04:32:36.051Z,100462.00
2022-09-25T04:35:04.289Z,100461.00
2022-09-25T04:37:31.988Z,100457.00
2022-09-25T04:39:59.703Z,100453.00
2022-09-25T04:42:28.790Z,100456.00
2022-09-25T04:44:58.036Z,100458.00
2022-09-25T04:47:27.314Z,100459.00
2022-09-25T04:49:55.034Z,100451.00
2022-09-25T04:52:23.026Z,100453.00
2022-09-25T04:54:50.918Z,100464.00
2022-09-25T04:57:45.660Z,100462.00
2022-09-25T05:00:11.087Z,100450.00
2022-09-25T05:02:39.104Z,100461.00
2022-09-25T05:05:07.918Z,100459.00
2022-09-25T05:07:35.606Z,100456.00
2022-09-25T05:10:03.364Z,100458.00
2022-09-25T05:12:31.058Z,100463.00
2022-09-25T05:14:58.772Z,100459.00
2022-09-25T05:17:27.811Z,100467.00
2022-09-25T05:19:55.533Z,100451.00
2022-09-25T05:22:23.234Z,100459.00
2022-09-25T05:24:58.052Z,100465.00
2022-09-25T05:27:26.575Z,100471.00
2022-09-25T05:29:54.288Z,100463.00
2022-09-25T05:32:22.861Z,100462.00
2022-09-25T05:34:52.034Z,100464.00
2022-09-25T05:37:20.085Z,100467.00
2022-09-25T05:39:47.774Z,100458.00
2022-09-25T05:42:19.282Z,100458.00
2022-09-25T05:44:47.424Z,100457.00
2022-09-25T05:47:15.471Z,100451.00
2022-09-25T05:49:43.250Z,100452.00
2022-09-25T05:52:12.635Z,100464.00
2022-09-25T05:54:40.997Z,100464.00
2022-09-25T05:57:08.741Z,100458.00
2022-09-25T05:59:36.490Z,100472.00
2022-09-25T06:02:04.326Z,100465.00
2022-09-25T06:04:32.025Z,100468.00
2022-09-25T06:07:02.555Z,100464.00
2022-09-25T06:09:31.613Z,100463.00
2022-09-25T06:11:59.314Z,100463.00
2022-09-25T06:14:27.034Z,100466.00
2022-09-25T06:16:54.985Z,100462.00
2022-09-25T06:19:22.706Z,100468.00
2022-09-25T06:21:50.713Z,100459.00
2022-09-25T06:24:18.430Z,100454.00
2022-09-25T06:26:47.686Z,100459.00
2022-09-25T06:29:15.389Z,100462.00
2022-09-25T06:31:43.205Z,100463.00
2022-09-25T06:34:12.463Z,100459.00
2022-09-25T06:36:40.240Z,100458.00
2022-09-25T06:39:08.536Z,100464.00
2022-09-25T06:41:36.727Z,100460.00
2022-09-25T06:44:09.098Z,100457.00
2022-09-25T06:46:36.931Z,100455.00
2022-09-25T06:49:04.816Z,100463.00
2022-09-25T06:51:36.353Z,100457.00
2022-09-25T06:54:04.252Z,100462.00
2022-09-25T06:56:32.750Z,100460.00
2022-09-25T06:59:00.488Z,100469.00
2022-09-25T07:01:29.665Z,100466.00
2022-09-25T07:03:56.463Z,100466.00
2022-09-25T07:06:26.476Z,100466.00
2022-09-25T07:08:56.838Z,100463.00
2022-09-25T07:11:26.590Z,100467.00
2022-09-25T07:13:55.592Z,100466.00
2022-09-25T07:16:25.127Z,100461.00
2022-09-25T07:18:57.152Z,100460.00
2022-09-25T07:21:27.653Z,100454.00
2022-09-25T07:23:55.391Z,100454.00
2022-09-25T07:26:24.835Z,100474.00
2022-09-25T07:28:55.869Z,100466.00
2022-09-25T07:31:25.818Z,100471.00
2022-09-25T07:33:55.783Z,100473.00
2022-09-25T07:36:23.496Z,100475.00
2022-09-25T07:38:51.857Z,100475.00
2022-09-25T07:41:21.049Z,100478.00
2022-09-25T07:43:48.808Z,100476.00
2022-09-25T07:46:16.601Z,100480.00
2022-09-25T07:48:44.379Z,100476.00
2022-09-25T07:51:14.829Z,100477.00
2022-09-25T07:53:42.624Z,100479.00
2022-09-25T07:56:11.980Z,100473.00
2022-09-25T07:58:40.254Z,100480.00
2022-09-25T08:01:10.947Z,100479.00
2022-09-25T08:03:38.821Z,100484.00
2022-09-25T08:06:09.608Z,100498.00
2022-09-25T08:08:39.100Z,100477.00
2022-09-25T08:11:08.877Z,100490.00
2022-09-25T08:13:38.203Z,100492.00
2022-09-25T08:16:07.192Z,100485.00
2022-09-25T08:18:35.131Z,100493.00
2022-09-25T08:21:03.674Z,100491.00
2022-09-25T08:23:31.881Z,100491.00
2022-09-25T08:26:01.501Z,100499.00
2022-09-25T08:28:29.935Z,100494.00
2022-09-25T08:30:59.108Z,100498.00
2022-09-25T08:33:26.937Z,100493.00
2022-09-25T08:35:58.868Z,100497.00
2022-09-25T08:38:27.489Z,100504.00
2022-09-25T08:40:59.937Z,100498.00
2022-09-25T08:43:29.469Z,100510.00
2022-09-25T08:46:17.116Z,100495.00
2022-09-25T08:49:03.108Z,100501.00
2022-09-25T08:51:32.448Z,100499.00
2022-09-25T08:54:01.301Z,100504.00
2022-09-25T08:56:29.984Z,100494.00
2022-09-25T08:59:09.724Z,100499.00
2022-09-25T09:01:45.675Z,100492.00
2022-09-25T09:04:20.191Z,100496.00
2022-09-25T09:07:24.577Z,100505.00
2022-09-25T09:09:45.373Z,100507.00
2022-09-25T09:12:16.832Z,100505.00
2022-09-25T09:14:49.414Z,100509.00
2022-09-25T09:17:19.594Z,100519.00
2022-09-25T09:19:49.530Z,100507.00
2022-09-25T09:22:23.101Z,100507.00
2022-09-25T09:24:56.560Z,100513.00
2022-09-25T09:27:37.726Z,100510.00
2022-09-25T09:30:15.895Z,100508.00
2022-09-25T09:33:06.090Z,100506.00
2022-09-25T09:35:41.070Z,100502.00
2022-09-25T09:38:19.713Z,100499.00
2022-09-25T09:41:03.001Z,100503.00
2022-09-25T09:43:46.624Z,100506.00
2022-09-25T09:46:24.983Z,100496.00
2022-09-25T09:49:04.343Z,100507.00
2022-09-25T09:51:36.518Z,100503.00
2022-09-25T09:54:08.383Z,100491.00
2022-09-25T09:56:37.053Z,100502.00
2022-09-25T09:59:07.332Z,100509.00
2022-09-25T10:04:34.884Z,100493.00
2022-09-25T10:07:05.965Z,100497.00
2022-09-25T10:09:33.822Z,100484.00
2022-09-25T10:12:07.480Z,100489.00
2022-09-25T10:14:40.609Z,100491.00
2022-09-25T10:17:12.076Z,100491.00
2022-09-25T10:19:47.111Z,100501.00
2022-09-25T10:22:18.128Z,100496.00
2022-09-25T10:25:03.657Z,100500.00
2022-09-25T10:27:33.691Z,100496.00
2022-09-25T10:30:21.720Z,100506.00
2022-09-25T10:32:58.911Z,100500.00
2022-09-25T10:35:40.969Z,100491.00
2022-09-25T10:38:23.860Z,100510.00
2022-09-25T10:41:00.919Z,100499.00
2022-09-25T10:43:28.655Z,100496.00
2022-09-25T10:46:07.619Z,100501.00
2022-09-25T10:48:55.741Z,100505.00
2022-09-25T10:51:23.898Z,100500.00
2022-09-25T10:53:53.470Z,100499.00
2022-09-25T10:56:27.499Z,100499.00
2022-09-25T10:58:57.495Z,100499.00
2022-09-25T11:01:35.376Z,100511.00
2022-09-25T11:04:07.836Z,100499.00
2022-09-25T11:06:36.548Z,100499.00
2022-09-25T11:09:11.237Z,100499.00
2022-09-25T11:11:40.912Z,100500.00
2022-09-25T11:14:20.935Z,100504.00
2022-09-25T11:16:51.364Z,100491.00
2022-09-25T11:19:32.293Z,100497.00
2022-09-25T11:22:07.914Z,100495.00
2022-09-25T11:24:57.153Z,100496.00
2022-09-25T11:27:34.129Z,100498.00
2022-09-25T11:30:06.541Z,100484.00
2022-09-25T11:32:43.287Z,100486.00
2022-09-25T11:35:24.398Z,100484.00
2022-09-25T11:38:02.602Z,100490.00
2022-09-25T11:40:59.100Z,100479.00
2022-09-25T11:43:37.680Z,100484.00
2022-09-25T11:46:19.454Z,100479.00
2022-09-25T11:48:56.589Z,100491.00
2022-09-25T11:51:41.220Z,100471.00
2022-09-25T11:54:34.494Z,100476.00
2022-09-25T11:57:05.985Z,100472.00
2022-09-25T11:59:46.886Z,100466.00
2022-09-25T12:02:24.255Z,100468.00
2022-09-25T12:05:19.957Z,100465.00
2022-09-25T12:08:16.471Z,100470.00
2022-09-25T12:10:55.592Z,100466.00
2022-09-25T12:13:29.863Z,100459.00
2022-09-25T12:16:09.470Z,100460.00
2022-09-25T12:18:47.497Z,100462.00
2022-09-25T12:21:18.842Z,100462.00
2022-09-25T12:23:57.830Z,100452.00
2022-09-25T12:26:31.942Z,100453.00
2022-09-25T12:29:14.375Z,100456.00
2022-09-25T12:31:52.490Z,100449.00
2022-09-25T12:34:33.292Z,100447.00
2022-09-25T12:37:23.102Z,100445.00
2022-09-25T12:39:59.537Z,100447.00
2022-09-25T12:42:41.569Z,100443.00
2022-09-25T12:45:19.185Z,100434.00
2022-09-25T12:48:00.931Z,100440.00
2022-09-25T12:50:32.134Z,100427.00
2022-09-25T12:53:06.642Z,100427.00
2022-09-25T12:55:41.733Z,100412.00
2022-09-25T12:58:18.390Z,100416.00
2022-09-25T13:00:50.536Z,100411.00
2022-09-25T13:03:24.916Z,100415.00
2022-09-25T13:05:59.280Z,100412.00
2022-09-25T13:08:33.829Z,100404.00
2022-09-25T13:11:07.812Z,100416.00
2022-09-25T13:13:41.077Z,100410.00
2022-09-25T13:16:08.854Z,100403.00
2022-09-25T13:18:38.283Z,100405.00
2022-09-25T13:21:25.216Z,100402.00
2022-09-25T13:23:54.544Z,100404.00
2022-09-25T13:26:27.036Z,100394.00
2022-09-25T13:28:58.670Z,100381.00
2022-09-25T13:31:29.079Z,100401.00
2022-09-25T13:34:05.748Z,100393.00
2022-09-25T13:36:38.048Z,100391.00
2022-09-25T13:39:26.633Z,100386.00
2022-09-25T13:41:58.935Z,100382.00
2022-09-25T13:44:52.485Z,100390.00
2022-09-25T13:48:01.755Z,100386.00
2022-09-25T13:50:41.101Z,100385.00
2022-09-25T13:53:50.904Z,100384.00
2022-09-25T13:56:24.803Z,100381.00
2022-09-25T13:59:10.067Z,100394.00
2022-09-25T14:01:40.161Z,100391.00
2022-09-25T14:04:17.561Z,100383.00
2022-09-25T14:06:47.994Z,100382.00
2022-09-25T14:09:18.739Z,100373.00
2022-09-25T14:11:54.329Z,100378.00
2022-09-25T14:14:42.170Z,100366.00
2022-09-25T14:17:17.085Z,100370.00
2022-09-25T14:19:48.518Z,100365.00
2022-09-25T14:22:23.065Z,100367.00
2022-09-25T14:24:50.902Z,100375.00
2022-09-25T14:27:23.864Z,100366.00
2022-09-25T14:29:53.696Z,100364.00
2022-09-25T14:32:54.465Z,100367.00
2022-09-25T14:35:35.904Z,100354.00
2022-09-25T14:38:18.484Z,100354.00
2022-09-25T14:41:05.137Z,100355.00
2022-09-25T14:44:04.281Z,100349.00
2022-09-25T14:46:34.480Z,100355.00
2022-09-25T14:49:09.608Z,100351.00
2022-09-25T14:51:41.335Z,100356.00
2022-09-25T14:54:15.352Z,100356.00
2022-09-25T14:56:50.120Z,100358.00
2022-09-25T14:59:21.419Z,100356.00
2022-09-25T15:01:52.462Z,100346.00
2022-09-25T15:04:27.706Z,100355.00
2022-09-25T15:07:02.014Z,100356.00
2022-09-25T15:09:36.313Z,100343.00
2022-09-25T15:12:16.584Z,100352.00
2022-09-25T15:14:59.174Z,100352.00
2022-09-25T15:17:28.687Z,100352.00
2022-09-25T15:19:59.078Z,100349.00
2022-09-25T15:22:32.139Z,100342.00
2022-09-25T15:25:01.760Z,100351.00
2022-09-25T15:27:30.790Z,100344.00
2022-09-25T15:30:00.062Z,100355.00
2022-09-25T15:32:35.281Z,100358.00
2022-09-25T15:35:08.862Z,100354.00
2022-09-25T15:37:37.501Z,100351.00
2022-09-25T15:40:19.053Z,100347.00
2022-09-25T15:42:48.455Z,100356.00
2022-09-25T15:45:36.508Z,100342.00
2022-09-25T15:48:11.295Z,100348.00
2022-09-25T15:50:44.384Z,100344.00
2022-09-25T15:53:21.984Z,100345.00
2022-09-25T15:55:50.631Z,100337.00
2022-09-25T15:58:21.876Z,100346.00
2022-09-25T16:01:15.898Z,100345.00
2022-09-25T16:04:07.605Z,100341.00
2022-09-25T16:06:41.406Z,100335.00
2022-09-25T16:09:11.179Z,100326.00
2022-09-25T16:11:39.080Z,100336.00
2022-09-25T16:14:22.772Z,100332.00
2022-09-25T16:16:51.993Z,100326.00
2022-09-25T16:19:32.397Z,100322.00
2022-09-25T16:22:08.378Z,100326.00
2022-09-25T16:24:36.155Z,100318.00
2022-09-25T16:27:05.424Z,100325.00
2022-09-25T16:29:36.072Z,100331.00
2022-09-25T16:32:06.498Z,100330.00
2022-09-25T16:34:38.838Z,100334.00
2022-09-25T16:37:09.527Z,100335.00
2022-09-25T16:39:40.558Z,100334.00
2022-09-25T16:42:39.406Z,100338.00
2022-09-25T16:45:17.438Z,100325.00
2022-09-25T16:47:49.484Z,100340.00
2022-09-25T16:50:20.615Z,100324.00
2022-09-25T16:52:49.581Z,100331.00
2022-09-25T16:55:21.623Z,100325.00
2022-09-25T16:57:49.819Z,100331.00
2022-09-25T17:00:20.433Z,100333.00
2022-09-25T17:02:48.946Z,100337.00
2022-09-25T17:05:21.653Z,100331.00
2022-09-25T17:07:51.247Z,100322.00
2022-09-25T17:10:20.506Z,100322.00
2022-09-25T17:12:53.786Z,100323.00
2022-09-25T17:15:26.638Z,100330.00
2022-09-25T17:17:55.262Z,100325.00
2022-09-25T17:20:26.926Z,100326.00
2022-09-25T17:22:55.860Z,100325.00
2022-09-25T17:25:38.259Z,100318.00
2022-09-25T17:28:07.319Z,100331.00
2022-09-25T17:30:35.151Z,100321.00
2022-09-25T17:33:05.100Z,100331.00
2022-09-25T17:35:41.155Z,100319.00
2022-09-25T17:38:09.912Z,100332.00
2022-09-25T17:40:37.724Z,100330.00
2022-09-25T17:43:05.530Z,100334.00
2022-09-25T17:45:39.103Z,100335.00
2022-09-25T17:48:07.022Z,100332.00
2022-09-25T17:50:35.678Z,100325.00
2022-09-25T17:53:09.453Z,100335.00
2022-09-25T17:55:37.592Z,100330.00
2022-09-25T17:58:05.407Z,100331.00
2022-09-25T18:00:33.850Z,100330.00
2022-09-25T18:03:01.740Z,100336.00
2022-09-25T18:05:31.722Z,100326.00
2022-09-25T18:08:00.018Z,100340.00
2022-09-25T18:10:29.622Z,100336.00
2022-09-25T18:12:59.084Z,100322.00
2022-09-25T18:15:28.314Z,100331.00
2022-09-25T18:17:56.153Z,100324.00
2022-09-25T18:20:42.030Z,100331.00
2022-09-25T18:23:10.253Z,100318.00
2022-09-25T18:25:41.899Z,100322.00
2022-09-25T18:28:09.830Z,100313.00
2022-09-25T18:30:38.136Z,100331.00
2022-09-25T18:33:05.997Z,100322.00
2022-09-25T18:35:33.814Z,100315.00
2022-09-25T18:38:01.610Z,100317.00
2022-09-25T18:40:29.459Z,100315.00
2022-09-25T18:43:01.412Z,100315.00
2022-09-25T18:45:29.564Z,100322.00
2022-09-25T18:47:58.006Z,100316.00
2022-09-25T18:50:26.722Z,100318.00
2022-09-25T18:52:54.455Z,100317.00
2022-09-25T18:55:22.196Z,100310.00
2022-09-25T18:57:50.098Z,100313.00
2022-09-25T19:00:20.333Z,100316.00
2022-09-25T19:02:48.226Z,100311.00
2022-09-25T19:05:17.094Z,100312.00
2022-09-25T19:07:45.145Z,100317.00
2022-09-25T19:10:13.546Z,100313.00
2022-09-25T19:12:41.304Z,100316.00
2022-09-25T19:15:10.357Z,100309.00
2022-09-25T19:17:39.444Z,100307.00
2022-09-25T19:20:07.966Z,100302.00
2022-09-25T19:22:37.026Z,100298.00
2022-09-25T19:25:05.817Z,100293.00
2022-09-25T19:27:33.535Z,100297.00
2022-09-25T19:30:01.232Z,100300.00
2022-09-25T19:32:28.935Z,100299.00
2022-09-25T19:34:59.525Z,100302.00
2022-09-25T19:37:30.646Z,100298.00
2022-09-25T19:40:15.737Z,100288.00
2022-09-25T19:42:43.553Z,100300.00
2022-09-25T19:45:12.158Z,100289.00
2022-09-25T19:47:40.614Z,100287.00
2022-09-25T19:50:10.715Z,100284.00
2022-09-25T19:52:38.421Z,100280.00
2022-09-25T19:55:06.846Z,100280.00
2022-09-25T19:57:34.771Z,100276.00
2022-09-25T20:00:02.819Z,100283.00
2022-09-25T20:02:30.574Z,100281.00
2022-09-25T20:04:58.370Z,100276.00
2022-09-25T20:07:27.509Z,100280.00
2022-09-25T20:09:55.226Z,100278.00
2022-09-25T20:12:22.943Z,100276.00
2022-09-25T20:14:50.671Z,100265.00
2022-09-25T20:17:18.457Z,100268.00
2022-09-25T20:19:46.174Z,100266.00
2022-09-25T20:22:13.891Z,100261.00
2022-09-25T20:24:43.019Z,100266.00
2022-09-25T20:27:10.830Z,100257.00
2022-09-25T20:29:38.670Z,100249.00
2022-09-25T20:32:06.407Z,100261.00
2022-09-25T20:34:34.192Z,100250.00
2022-09-25T20:37:03.569Z,100250.00
2022-09-25T20:39:31.279Z,100244.00
2022-09-25T20:42:00.401Z,100237.00
2022-09-25T20:44:28.108Z,100247.00
2022-09-25T20:46:55.902Z,100252.00
2022-09-25T20:49:23.723Z,100250.00
2022-09-25T20:51:51.422Z,100251.00
2022-09-25T20:54:19.107Z,100241.00
2022-09-25T20:56:46.860Z,100247.00
2022-09-25T20:59:18.628Z,100242.00
2022-09-25T21:01:46.712Z,100250.00
2022-09-25T21:04:17.960Z,100246.00
2022-09-25T21:06:46.012Z,100240.00
2022-09-25T21:09:19.942Z,100238.00
2022-09-25T21:11:48.407Z,100238.00
2022-09-25T21:14:21.030Z,100240.00
2022-09-25T21:16:50.136Z,100243.00
2022-09-25T21:19:19.912Z,100236.00
2022-09-25T21:21:48.549Z,100237.00
2022-09-25T21:24:18.560Z,100248.00
2022-09-25T21:26:46.835Z,100230.00
2022-09-25T21:29:17.664Z,100231.00
2022-09-25T21:31:50.386Z,100233.00
2022-09-25T21:34:19.354Z,100225.00
2022-09-25T21:36:47.548Z,100215.00
2022-09-25T21:39:15.744Z,100228.00
2022-09-25T21:41:43.643Z,100213.00
2022-09-25T21:44:14.424Z,100217.00
2022-09-25T21:46:42.505Z,100204.00
2022-09-25T21:49:16.421Z,100218.00
2022-09-25T21:51:45.733Z,100217.00
2022-09-25T21:54:14.239Z,100213.00
2022-09-25T21:56:43.206Z,100201.00
2022-09-25T21:59:11.355Z,100205.00
2022-09-25T22:01:40.301Z,100202.00
2022-09-25T22:04:12.569Z,100198.00
2022-09-25T22:06:43.694Z,100207.00
2022-09-25T22:09:13.042Z,100193.00
2022-09-25T22:11:41.715Z,100192.00
2022-09-25T22:14:15.361Z,100189.00
2022-09-25T22:16:44.862Z,100187.00
2022-09-25T22:19:16.291Z,100184.00
2022-09-25T22:21:45.170Z,100186.00
2022-09-25T22:24:13.347Z,100189.00
2022-09-25T22:26:44.377Z,100184.00
2022-09-25T22:29:12.948Z,100174.00
2022-09-25T22:31:43.138Z,100174.00
2022-09-25T22:34:18.373Z,100177.00
2022-09-25T22:36:46.834Z,100176.00
2022-09-25T22:39:17.673Z,100176.00
2022-09-25T22:41:46.046Z,100179.00
2022-09-25T22:44:13.812Z,100183.00
2022-09-25T22:46:41.526Z,100185.00
2022-09-25T22:49:09.302Z,100183.00
2022-09-25T22:51:38.543Z,100183.00
2022-09-25T22:54:06.982Z,100189.00
2022-09-25T22:56:35.697Z,100185.00
2022-09-25T22:59:05.195Z,100178.00
2022-09-25T23:01:36.604Z,100171.00
2022-09-25T23:04:07.309Z,100183.00
2022-09-25T23:06:36.369Z,100184.00
2022-09-25T23:09:07.455Z,100181.00
2022-09-25T23:11:35.326Z,100178.00
2022-09-25T23:14:05.001Z,100175.00
2022-09-25T23:16:33.806Z,100173.00
2022-09-25T23:19:02.272Z,100165.00
2022-09-25T23:21:31.251Z,100165.00
2022-09-25T23:24:00.267Z,100168.00
2022-09-25T23:26:30.205Z,100159.00
2022-09-25T23:28:59.143Z,100168.00
2022-09-25T23:31:27.082Z,100152.00
2022-09-25T23:33:55.275Z,100155.00
2022-09-25T23:36:24.793Z,100150.00
2022-09-25T23:38:54.185Z,100153.00
2022-09-25T23:41:24.425Z,100146.00
2022-09-25T23:43:54.481Z,100145.00
2022-09-25T23:46:24.696Z,100145.00
2022-09-25T23:48:53.317Z,100138.00
2022-09-25T23:51:22.975Z,100120.00
2022-09-25T23:53:51.422Z,100119.00
2022-09-25T23:56:21.269Z,100115.00
2022-09-25T23:58:49.938Z,100117.00
